createdAt,value
2023-02-23T04:39:50.343Z,97.87
2023-02-23T04:42:54.226Z,97.87
2023-02-23T04:45:56.933Z,99.11
2023-02-23T04:49:00.196Z,100.00
2023-02-23T04:52:02.976Z,100.00
2023-02-23T04:55:08.442Z,99.41
2023-02-23T04:58:15.628Z,100.00
2023-02-23T05:01:18.930Z,100.00
2023-02-23T05:04:21.659Z,100.00
2023-02-23T05:07:24.846Z,100.00
2023-02-23T05:10:27.595Z,99.22
2023-02-23T05:13:30.814Z,99.27
2023-02-23T05:16:33.641Z,99.56
2023-02-23T05:19:37.289Z,99.95
2023-02-23T05:22:40.055Z,100.00
2023-02-23T05:25:43.049Z,100.00
2023-02-23T05:28:45.665Z,98.08
2023-02-23T05:31:49.117Z,99.95
2023-02-23T05:34:51.760Z,98.19
2023-02-23T05:37:54.796Z,97.89
2023-02-23T05:40:57.964Z,99.91
2023-02-23T05:44:01.161Z,99.24
2023-02-23T05:47:04.001Z,98.87
2023-02-23T05:50:11.438Z,100.00
2023-02-23T05:53:14.622Z,100.00
2023-02-23T05:56:20.552Z,99.49
2023-02-23T05:59:23.396Z,97.93
2023-02-23T06:02:26.501Z,100.00
2023-02-23T06:05:30.034Z,100.00
2023-02-23T06:08:33.089Z,98.09
2023-02-23T06:11:36.066Z,99.28
2023-02-23T06:14:38.891Z,97.27
2023-02-23T06:17:41.693Z,94.42
2023-02-23T06:20:45.825Z,93.45
2023-02-23T06:23:48.930Z,92.98
2023-02-23T06:26:51.689Z,93.04
2023-02-23T06:29:54.683Z,90.78
2023-02-23T06:32:57.286Z,92.16
2023-02-23T06:36:00.259Z,90.29
2023-02-23T06:39:04.068Z,90.03
2023-02-23T06:42:07.105Z,90.43
2023-02-23T06:45:10.631Z,89.83
2023-02-23T06:48:13.662Z,90.81
2023-02-23T06:51:16.351Z,89.62
2023-02-23T06:54:21.697Z,88.07
2023-02-23T06:57:24.626Z,88.49
2023-02-23T07:00:27.856Z,85.65
2023-02-23T07:03:30.483Z,86.38
2023-02-23T07:06:33.596Z,84.52
2023-02-23T07:09:36.386Z,84.98
2023-02-23T07:12:40.110Z,81.63
2023-02-23T07:15:43.117Z,80.91
2023-02-23T07:18:48.042Z,82.84
2023-02-23T07:21:51.069Z,79.29
2023-02-23T07:24:54.051Z,80.07
2023-02-23T07:27:59.052Z,83.34
2023-02-23T07:31:02.055Z,79.84
2023-02-23T07:34:04.845Z,76.91
2023-02-23T07:37:07.832Z,78.23
2023-02-23T07:40:11.317Z,78.18
2023-02-23T07:43:14.796Z,78.21
2023-02-23T07:46:17.539Z,77.30
2023-02-23T07:49:20.493Z,75.55
2023-02-23T07:52:23.161Z,75.20
2023-02-23T07:55:26.185Z,74.86
2023-02-23T07:58:28.933Z,73.82
2023-02-23T08:01:32.229Z,71.92
2023-02-23T08:04:35.419Z,71.13
2023-02-23T08:07:38.317Z,71.76
2023-02-23T08:10:42.208Z,68.90
2023-02-23T08:13:45.001Z,69.58
2023-02-23T08:16:49.521Z,67.74
2023-02-23T08:19:53.229Z,68.92
2023-02-23T08:22:57.511Z,67.61
2023-02-23T08:26:01.469Z,66.45
2023-02-23T08:29:05.038Z,67.28
2023-02-23T08:32:07.581Z,66.41
2023-02-23T08:35:11.169Z,62.19
2023-02-23T08:38:13.649Z,62.25
2023-02-23T08:41:17.619Z,61.27
2023-02-23T08:44:20.576Z,60.61
2023-02-23T08:47:24.285Z,60.13
2023-02-23T08:50:27.562Z,60.23
2023-02-23T08:53:31.930Z,59.26
2023-02-23T08:56:34.647Z,58.81
2023-02-23T08:59:39.205Z,61.26
2023-02-23T09:02:42.950Z,62.59
2023-02-23T09:05:46.322Z,61.39
2023-02-23T09:08:49.854Z,59.33
2023-02-23T09:11:53.585Z,58.69
2023-02-23T09:14:56.248Z,58.13
2023-02-23T09:18:02.664Z,59.18
2023-02-23T09:21:08.551Z,58.72
2023-02-23T09:24:11.643Z,57.31
2023-02-23T09:27:14.906Z,56.36
2023-02-23T09:30:23.769Z,58.40
2023-02-23T09:33:27.718Z,55.28
2023-02-23T09:36:31.715Z,52.78
2023-02-23T09:39:38.383Z,53.28
2023-02-23T09:43:05.587Z,53.43
2023-02-23T09:46:31.977Z,52.63
2023-02-23T09:49:39.315Z,52.54
2023-02-23T09:52:47.494Z,53.20
2023-02-23T09:55:53.100Z,53.04
2023-02-23T09:58:56.093Z,52.08
2023-02-23T10:02:37.132Z,52.29
2023-02-23T10:05:48.283Z,52.48
2023-02-23T10:09:29.412Z,51.74
2023-02-23T10:12:44.971Z,49.49
2023-02-23T10:15:51.334Z,51.24
2023-02-23T10:19:22.995Z,50.07
2023-02-23T10:22:27.658Z,50.27
2023-02-23T10:25:34.632Z,50.50
2023-02-23T10:28:37.707Z,49.50
2023-02-23T10:31:45.184Z,48.72
2023-02-23T10:34:53.352Z,49.12
2023-02-23T10:37:57.014Z,48.73
2023-02-23T10:40:59.778Z,49.67
2023-02-23T10:44:16.375Z,48.89
2023-02-23T10:47:22.919Z,48.89
2023-02-23T10:50:29.716Z,48.44
2023-02-23T10:53:37.521Z,48.33
2023-02-23T10:56:46.292Z,47.70
2023-02-23T11:00:10.880Z,48.30
2023-02-23T11:03:33.308Z,48.00
2023-02-23T11:06:43.630Z,46.84
2023-02-23T11:09:48.349Z,47.49
2023-02-23T11:12:52.405Z,47.38
2023-02-23T11:15:59.612Z,46.64
2023-02-23T11:19:05.867Z,46.39
2023-02-23T11:22:23.305Z,47.35
2023-02-23T11:25:30.535Z,47.84
2023-02-23T11:28:37.478Z,46.96
2023-02-23T11:31:41.693Z,47.66
2023-02-23T11:34:45.774Z,46.11
2023-02-23T11:37:48.964Z,47.81
2023-02-23T11:41:04.754Z,47.13
2023-02-23T11:44:07.474Z,46.87
2023-02-23T11:47:19.000Z,49.17
2023-02-23T11:50:36.289Z,47.95
2023-02-23T11:53:46.769Z,48.47
2023-02-23T11:56:52.265Z,48.61
2023-02-23T11:59:58.069Z,49.93
2023-02-23T12:03:03.086Z,50.64
2023-02-23T12:06:06.618Z,50.42
2023-02-23T12:09:24.790Z,50.21
2023-02-23T12:12:31.062Z,49.76
2023-02-23T12:15:57.168Z,50.21
2023-02-23T12:19:19.029Z,51.01
2023-02-23T12:22:35.524Z,50.43
2023-02-23T12:25:44.547Z,50.28
2023-02-23T12:28:58.908Z,51.45
2023-02-23T12:32:10.383Z,51.79
2023-02-23T12:35:26.965Z,51.82
2023-02-23T12:38:53.073Z,52.11
2023-02-23T12:42:13.616Z,52.22
2023-02-23T12:45:54.950Z,52.19
2023-02-23T12:49:18.975Z,52.45
2023-02-23T12:52:32.261Z,51.16
2023-02-23T12:55:47.326Z,52.16
2023-02-23T12:59:41.627Z,52.07
2023-02-23T13:02:52.149Z,51.95
2023-02-23T13:05:55.035Z,51.87
2023-02-23T13:09:20.404Z,51.03
2023-02-23T13:12:29.577Z,51.26
2023-02-23T13:16:06.917Z,51.39
2023-02-23T13:19:45.722Z,52.42
2023-02-23T13:23:09.488Z,50.65
2023-02-23T13:26:27.840Z,49.92
2023-02-23T13:29:40.811Z,50.40
2023-02-23T13:32:43.819Z,51.27
2023-02-23T13:35:46.815Z,49.83
2023-02-23T13:39:19.120Z,49.19
2023-02-23T13:42:51.219Z,48.84
2023-02-23T13:46:26.467Z,48.36
2023-02-23T13:49:47.126Z,47.16
2023-02-23T13:52:58.366Z,47.86
2023-02-23T13:56:07.182Z,47.27
2023-02-23T13:59:17.931Z,46.58
2023-02-23T14:02:33.137Z,47.29
2023-02-23T14:05:44.361Z,49.35
2023-02-23T14:08:56.957Z,49.39
2023-02-23T14:12:08.026Z,48.30
2023-02-23T14:15:26.264Z,49.29
2023-02-23T14:18:32.151Z,47.98
2023-02-23T14:21:57.430Z,48.82
2023-02-23T14:25:39.374Z,49.36
2023-02-23T14:28:49.278Z,50.97
2023-02-23T14:31:59.306Z,49.13
2023-02-23T14:35:02.781Z,50.41
2023-02-23T14:38:22.475Z,51.63
2023-02-23T14:41:29.472Z,52.47
2023-02-23T14:44:42.314Z,52.23
2023-02-23T14:47:48.658Z,50.95
2023-02-23T14:50:51.764Z,49.25
2023-02-23T14:53:58.853Z,45.37
2023-02-23T14:57:17.794Z,44.65
2023-02-23T15:00:27.505Z,44.74
2023-02-23T15:03:30.636Z,45.52
2023-02-23T15:06:33.294Z,47.83
2023-02-23T15:09:44.531Z,47.95
2023-02-23T15:12:47.499Z,49.97
2023-02-23T15:15:50.500Z,51.03
2023-02-23T15:18:53.632Z,52.01
2023-02-23T15:21:59.352Z,52.80
2023-02-23T15:25:09.880Z,54.53
2023-02-23T15:28:25.372Z,56.33
2023-02-23T15:31:31.085Z,57.46
2023-02-23T15:34:35.051Z,58.87
2023-02-23T15:37:45.385Z,60.39
2023-02-23T15:40:52.911Z,60.88
2023-02-23T15:44:14.962Z,60.90
2023-02-23T15:47:23.252Z,62.62
2023-02-23T15:50:37.236Z,63.53
2023-02-23T15:53:41.386Z,63.20
2023-02-23T15:56:49.804Z,63.84
2023-02-23T15:59:57.577Z,65.16
2023-02-23T16:03:02.682Z,65.49
2023-02-23T16:06:23.164Z,67.88
2023-02-23T16:09:29.038Z,67.31
2023-02-23T16:12:36.292Z,67.67
2023-02-23T16:15:40.255Z,67.81
2023-02-23T16:18:43.494Z,68.71
2023-02-23T16:21:53.871Z,69.36
2023-02-23T16:25:05.157Z,68.78
2023-02-23T16:28:13.112Z,69.10
2023-02-23T16:31:25.827Z,70.04
2023-02-23T16:34:37.666Z,69.96
2023-02-23T16:38:01.004Z,71.26
